Home > Products > Valid Products > TAF

000
FTUS46 KSGX 012300
TAFSNA
TAF
KSNA 012329Z 0200/0224 23007KT P6SM FEW200
     FM020300 VRB03KT P6SM FEW004 SCT200
     FM020900 VRB03KT 4SM BR VCFG SCT003 SCT200
     FM021600 VRB03KT 6SM BR FEW004 BKN200
     FM022100 29008KT P6SM FEW200=



000
FTUS46 KSGX 012300
TAFSAN
TAF
KSAN 012329Z 0200/0306 29008KT P6SM SCT200
     FM020100 VRB04KT P6SM FEW004 SCT200
     FM020900 VRB03KT 4SM BR VCFG FEW003 SCT200
     FM021600 VRB04KT P6SM FEW004 BKN200
     FM022000 29008KT P6SM BKN200
     FM030100 VRB05KT P6SM FEW004=



000
FTUS46 KSGX 012300
TAFONT
TAF
KONT 012329Z 0200/0306 VRB05KT P6SM SCT250=



000
FTUS46 KSGX 012300
TAFTRM
TAF
KTRM 012329Z 0200/0224 15008KT P6SM FEW250=



000
FTUS46 KSGX 012300
TAFCRQ
TAF
KCRQ 012329Z 0200/0224 27007KT P6SM FEW200
     FM020300 VRB03KT P6SM VCFG FEW003 SCT200
     FM020900 VRB03KT 4SM BR SCT002 SCT200
     FM021600 VRB03KT P6SM FEW003 BKN200=



000
FTUS46 KSGX 012300
TAFPSP
TAF
KPSP 012329Z 0200/0224 14008KT P6SM FEW250=



000
FTUS46 KSGX 012100 AAA
TAFSAN
TAF AMD
KSAN 012105Z 0121/0224 29008KT P6SM SCT200
     FM020100 VRB04KT P6SM VCFG FEW004 SCT200
     FM020900 VRB03KT 2SM BR VCFG SCT003 SCT200
      TEMPO 0211/0214 1SM BR BKN003
     FM021600 VRB04KT P6SM FEW004 BKN200
     FM022000 29008KT P6SM BKN200=



000
FTUS46 KSGX 011700
TAFSNA
TAF
KSNA 011727Z 0118/0218 23007KT P6SM FEW200
     FM020300 VRB03KT P6SM VCFG FEW004 SCT200
     FM021000 VRB03KT 2SM BR VCFG SCT003 SCT200
      TEMPO 0211/0214 1SM BR BKN003
     FM021500 VRB03KT 5SM BR VCFG FEW004 BKN200=



000
FTUS46 KSGX 011700
TAFSAN
TAF
KSAN 011727Z 0118/0224 VRB05KT P6SM FEW200
     FM012000 29008KT P6SM FEW200
     FM020100 VRB04KT P6SM VCFG FEW004 SCT200
     FM020900 VRB03KT 2SM BR VCFG SCT003 SCT200
      TEMPO 0211/0214 1SM BR BKN003
     FM021600 VRB04KT P6SM FEW004 BKN200
     FM022000 29008KT P6SM BKN200=



000
FTUS46 KSGX 011700
TAFCRQ
TAF
KCRQ 011727Z 0118/0218 27007KT P6SM FEW200
     FM020300 VRB03KT P6SM VCFG FEW003 SCT200
     FM020900 VRB03KT 1SM BR SCT002 SCT200
      TEMPO 0211/0214 1/2SM FG BKN002
     FM021600 VRB03KT 3SM BR FEW003 BKN200=



000
FTUS46 KSGX 011700
TAFPSP
TAF
KPSP 011727Z 0118/0218 VRB05KT P6SM FEW250
     FM012100 14008KT P6SM FEW250
     FM020200 32006KT P6SM SCT250=



000
FTUS46 KSGX 011700
TAFONT
TAF
KONT 011727Z 0118/0224 VRB05KT P6SM SCT250
     FM022100 25006KT P6SM BKN250=



000
FTUS46 KSGX 011700
TAFTRM
TAF
KTRM 011727Z 0118/0218 VRB06KT P6SM FEW250
     FM012100 15008KT P6SM FEW250
     FM020300 32005KT P6SM SCT250=



000
FTUS46 KSGX 011500 AAB
TAFSAN
TAF AMD
KSAN 011509Z 0115/0218 VRB05KT P6SM SKC
     FM011900 29008KT P6SM FEW250
     FM020200 VRB03KT 6SM BR FEW004 SCT250
     FM021200 VRB03KT 3SM BR VCFG SCT003 SCT250
     FM021600 VRB04KT 6SM HZ FEW004 BKN250=



000
FTUS46 KSGX 011300 AAA
TAFSAN
TAF AMD
KSAN 011341Z 0114/0218 VRB03KT P6SM SKC
     FM011700 29008KT P6SM SKC
     FM020300 VRB03KT 3SM BR SCT005
     FM020900 VRB03KT 1SM BR SCT003
     FM021500 VRB04KT 6SM HZ FEW003 BKN250=



000
FTUS46 KSGX 011300 AAA
TAFCRQ
TAF AMD
KCRQ 011341Z 0114/0212 VRB03KT P6SM SKC
     FM011700 27007KT P6SM SKC
     FM020300 VRB03KT 3SM BR SCT005
     FM020900 VRB03KT 1SM BR SCT003=



000
FTUS46 KSGX 011300 AAA
TAFSNA
TAF AMD
KSNA 011341Z 0114/0212 VRB03KT P6SM SKC
     FM011700 23007KT P6SM SKC
     FM020300 VRB03KT 3SM BR SCT005
     FM020900 VRB03KT 1SM BR SCT003=



000
FTUS46 KSGX 011100
TAFTRM
TAF
KTRM 011120Z 0112/0212 34006KT P6SM SCT250=



000
FTUS46 KSGX 011100
TAFPSP
TAF
KPSP 011120Z 0112/0212 31007KT P6SM SCT250=



000
FTUS46 KSGX 011100
TAFCRQ
TAF
KCRQ 011120Z 0112/0212 VRB03KT P6SM SKC
      TEMPO 0112/0114 3SM BR
     FM011500 27007KT P6SM SKC
     FM020300 VRB03KT 3SM BR SCT005
     FM020900 VRB03KT 1SM BR SCT003=



000
FTUS46 KSGX 011100
TAFSNA
TAF
KSNA 011120Z 0112/0212 VRB03KT P6SM SKC
      TEMPO 0112/0114 3SM BR
     FM011500 23007KT P6SM SKC
     FM020300 VRB03KT 3SM BR SCT005
     FM020900 VRB03KT 1SM BR SCT003=



000
FTUS46 KSGX 011100
TAFSAN
TAF
KSAN 011120Z 0112/0218 VRB03KT P6SM SKC
      TEMPO 0112/0114 3SM BR
     FM011500 29008KT P6SM SKC
     FM020300 VRB03KT 3SM BR SCT005
     FM020900 VRB03KT 1SM BR SCT003
     FM021500 VRB04KT 6SM HZ FEW003 BKN250=



000
FTUS46 KSGX 011100
TAFONT
TAF
KONT 011120Z 0112/0218 VRB05KT P6SM SCT250=



000
FTUS46 KSGX 010900 AAA
TAFSAN
TAF AMD
KSAN 010923Z 0109/0212 VRB06KT P6SM BKN250
      TEMPO 0112/0115 3SM BR SCT012
     FM011500 VRB05KT P6SM BKN250
     FM020300 VRB06KT P6SM BKN015=



000
FTUS46 KSGX 010500
TAFONT
TAF
KONT 010532Z 0106/0212 VRB04KT P6SM FEW007 SCT250
     FM020900 VRB06KT 6SM BR SKC=



000
FTUS46 KSGX 010500
TAFSAN
TAF
KSAN 010532Z 0106/0212 35006KT P6SM FEW025 BKN100 BKN200
     FM010900 VRB06KT 5SM HZ SCT012 BKN250
     FM011500 VRB05KT P6SM FEW012 BKN250
     FM020300 VRB06KT P6SM BKN015=



000
FTUS46 KSGX 010500
TAFCRQ
TAF
KCRQ 010532Z 0106/0206 26008KT P6SM FEW025 BKN150
     FM010900 VRB06KT 6SM BR SCT010 BKN250
     FM011500 VRB05KT P6SM FEW012 BKN250
     FM020300 VRB05KT 6SM BR BKN012=



000
FTUS46 KSGX 010500
TAFSNA
TAF
KSNA 010532Z 0106/0206 VRB03KT P6SM SCT015 SCT250
     FM011200 VRB06KT P6SM FEW015 BKN250=



000
FTUS46 KSGX 010500
TAFPSP
TAF
KPSP 010532Z 0106/0206 VRB06KT P6SM SCT250=



000
FTUS46 KSGX 010500
TAFTRM
TAF
KTRM 010532Z 0106/0206 34006KT P6SM SCT250=



000
FTUS46 KSGX 010300 AAA
TAFSAN
TAF AMD
KSAN 010306Z 0103/0206 35006KT P6SM FEW025 BKN100 BKN200
     FM010900 VRB06KT 6SM HZ SCT012 BKN250
     FM011500 VRB05KT P6SM FEW012 BKN250
     FM020300 VRB06KT P6SM BKN015=



000
FTUS46 KSGX 010300 AAA
TAFSAN
TAF AMD
KSAN 010306Z 0103/0206 35006KT P6SM FEW025 BKN100 BKN200
     FM010900 VRB06KT 6SM HZ SCT012 BKN250
     FM011500 VRB05KT P6SM FEW012 BKN250
     FM020300 VRB06KT P6SM BKN015=



000
FTUS46 KSGX 312300
TAFSNA
TAF
KSNA 312332Z 0100/0124 24008KT P6SM FEW035 BKN250
     FM010600 VRB03KT 6SM BR SCT015 SCT250
     FM011200 VRB06KT P6SM FEW015 BKN250=



000
FTUS46 KSGX 312300
TAFCRQ
TAF
KCRQ 312332Z 0100/0124 26008KT P6SM FEW025 BKN150
     FM010900 VRB06KT 6SM BR SCT012 BKN250
     FM011500 VRB05KT P6SM FEW012 BKN250=



000
FTUS46 KSGX 312300
TAFSAN
TAF
KSAN 312332Z 0100/0206 29007KT P6SM SCT030 BKN200
     FM010900 VRB06KT 6SM HZ SCT012 BKN250
     FM011500 VRB05KT P6SM FEW012 BKN250
     FM020300 VRB06KT P6SM BKN015=



000
FTUS46 KSGX 312300
TAFPSP
TAF
KPSP 312332Z 0100/0124 VRB06KT P6SM SCT250=



000
FTUS46 KSGX 312300
TAFTRM
TAF
KTRM 312332Z 0100/0124 32011KT P6SM SCT150
     FM010300 34006KT P6SM SCT250=



000
FTUS46 KSGX 312300
TAFONT
TAF
KONT 312332Z 0100/0206 04013G23KT P6SM FEW007 SCT250
     FM010400 VRB04KT P6SM FEW007 SCT250=



000
FTUS46 KSGX 312100 AAA
TAFSAN
TAF AMD
KSAN 312117Z 3121/0124 29008KT P6SM SCT030 BKN200
     FM010200 VRB03KT P6SM SCT025 BKN200
     FM010700 VRB03KT 5SM HZ BKN012 BKN250
     FM011500 VRB03KT P6SM SCT015 SCT250
     FM011900 28007KT P6SM SCT250=



000
FTUS46 KSGX 311800 AAA
TAFONT
TAF AMD
KONT 311841Z 3119/0124 VRB04KT P6SM SCT015 BKN080 BKN150
     FM312100 33010G18KT P6SM BKN200
     FM010000 35008KT P6SM SCT250
     FM010500 VRB04KT P6SM SCT250
     FM012100 27007KT P6SM FEW250=



000
FTUS46 KSGX 311800 AAA
TAFSNA
TAF AMD
KSNA 311840Z 3119/0118 VRB03KT P6SM SCT025 SCT050
     FM312000 24008KT P6SM FEW035 BKN250
     FM010200 VRB03KT P6SM SCT250
     FM010800 00000KT 6SM HZ SCT015 BKN250=



000
FTUS46 KSGX 311700
TAFPSP
TAF
KPSP 311722Z 3118/0118 VRB05KT P6SM BKN100
     FM312000 35010G18KT P6SM BKN100
     FM312300 32007KT P6SM SCT250=



000
FTUS46 KSGX 311700
TAFTRM
TAF
KTRM 311722Z 3118/0118 32011KT P6SM SCT150
     FM010300 34006KT P6SM SCT250=



000
FTUS46 KSGX 311700
TAFONT
TAF
KONT 311722Z 3118/0124 04006KT P6SM BKN015 BKN080
     FM312100 33010G18KT P6SM BKN200
     FM010000 35008KT P6SM SCT250
     FM010500 VRB04KT P6SM SCT250
     FM012100 27007KT P6SM FEW250=



000
FTUS46 KSGX 311700
TAFCRQ
TAF
KCRQ 311722Z 3118/0118 VRB03KT P6SM BKN015 BKN025 BKN150
     FM312000 26008KT P6SM SCT025 BKN150
     FM010100 VRB03KT P6SM SCT025 SCT200
     FM010600 VRB03KT 5SM HZ BKN009 BKN250
     FM011500 VRB03KT P6SM SCT011 SCT250=



000
FTUS46 KSGX 311700
TAFSAN
TAF
KSAN 311722Z 3118/0124 VRB04KT P6SM BKN025 BKN200
     FM312000 30008KT P6SM SCT030 BKN250
     FM010200 VRB03KT P6SM SCT025 BKN250
     FM010700 VRB03KT 5SM HZ BKN012 BKN250
     FM011500 VRB03KT P6SM SCT015 SCT250
     FM011900 28007KT P6SM SCT250=



000
FTUS46 KSGX 311700
TAFSNA
TAF
KSNA 311722Z 3118/0118 VRB03KT P6SM BKN030 BKN150
     FM312000 24008KT P6SM FEW035 BKN150
     FM010200 VRB03KT P6SM SCT250
     FM010800 00000KT 6SM HZ SCT015 BKN250=



000
FTUS46 KSGX 311500 AAB
TAFSAN
TAF AMD
KSAN 311530Z 3116/0118 09003KT P6SM SCT012 BKN025
      TEMPO 3116/3118 SCT030
     FM311800 29008KT P6SM BKN100
     FM010100 VRB03KT P6SM SCT025 SCT250
     FM010900 VRB03KT 5SM HZ BKN012 BKN250
     FM011500 VRB03KT 6SM HZ SCT015 SCT250=



000
FTUS46 KSGX 311500 AAA
TAFSNA
TAF AMD
KSNA 311528Z 3115/0112 VRB04KT P6SM BKN025 BKN120
      TEMPO 3116/3118 SCT025
     FM311800 24008KT P6SM SCT100
     FM010200 15004KT P6SM SCT250
     FM010800 12003KT 6SM HZ SCT015 BKN250=



000
FTUS46 KSGX 311300 AAA
TAFCRQ
TAF AMD
KCRQ 311330Z 3114/0112 09003KT 6SM HZ BKN010 BKN030
      TEMPO 3114/3118 SCT015 BKN030
     FM311800 29008KT P6SM BKN100
     FM010100 32005KT P6SM SCT025 SCT250
     FM010900 VRB02KT 5SM HZ BKN010 BKN250=



000
FTUS46 KSGX 311300 AAA
TAFSAN
TAF AMD
KSAN 311329Z 3114/0118 09003KT 6SM HZ BKN012 BKN030
      TEMPO 3115/3118 SCT012 BKN030
     FM311800 29009KT P6SM BKN100
     FM010100 32005KT P6SM SCT025 SCT250
     FM010900 VRB02KT 5SM HZ BKN012 BKN250
     FM011500 VRB03KT 6SM HZ SCT015 SCT250=



000
FTUS46 KSGX 311100
TAFCRQ
TAF
KCRQ 311136Z 3112/0112 09003KT 6SM HZ BKN010 BKN030
      TEMPO 3114/3117 SCT015
     FM311700 29008KT P6SM BKN100
     FM010100 32005KT P6SM SCT025 SCT250
     FM010900 VRB02KT 5SM HZ BKN010 BKN250=



000
FTUS46 KSGX 311100
TAFSNA
TAF
KSNA 311136Z 3112/0112 VRB04KT P6SM SCT010 BKN120
     FM311800 24008KT P6SM SCT100
     FM010200 15004KT P6SM SCT250
     FM010800 12003KT 6SM HZ SCT015 BKN250=



000
FTUS46 KSGX 311100
TAFONT
TAF
KONT 311136Z 3112/0118 04006KT P6SM SCT120
     FM311900 02012G22KT P6SM SCT200
     FM010200 27006KT P6SM SCT250=



000
FTUS46 KSGX 311100
TAFTRM
TAF
KTRM 311136Z 3112/0112 28005KT P6SM VCSH SCT080 BKN100
     FM311700 32010G18KT P6SM SCT150
     FM010300 31006KT P6SM SCT250=



000
FTUS46 KSGX 311100
TAFPSP
TAF
KPSP 311136Z 3112/0112 28005KT P6SM VCSH SCT080 BKN100
     FM311700 32010G18KT P6SM SCT150
     FM010300 31006KT P6SM SCT250=



000
FTUS46 KSGX 311100
TAFSAN
TAF
KSAN 311136Z 3112/0118 09003KT 6SM HZ BKN010 BKN030
      TEMPO 3114/3117 SCT015
     FM311700 29009KT P6SM BKN100
     FM010100 32005KT P6SM SCT025 SCT250
     FM010900 VRB02KT 5SM HZ BKN012 BKN250
     FM011500 VRB03KT 6SM HZ SCT015 SCT250=



000
FTUS46 KSGX 310900 AAB
TAFSAN
TAF AMD
KSAN 310916Z 3109/0112 VRB03KT P6SM SCT015 BKN025
      TEMPO 3109/3113 BKN015
     FM311800 30008KT P6SM BKN150
     FM010100 VRB04KT P6SM SCT025 SCT250=



000
FTUS46 KSGX 310700 CCA
TAFSNA
TAF COR
KSNA 310732Z 3108/0106 VRB04KT P6SM SCT010 BKN120 BKN250
      TEMPO 3108/3110 BKN009
     FM312000 22007KT P6SM SCT100
     FM010200 VRB04KT P6SM SCT250=



000
FTUS46 KSGX 310700 AAB
TAFSNA
TAF AMD
KSNA 310731Z 3108/0106 VRB04KT P6SM SCT010 BKN120 BKN250
      TEMPO 3108/3110 BKN008
     FM312000 22007KT P6SM SCT100
     FM010200 VRB04KT P6SM SCT250=



000
FTUS46 KSGX 310500 AAA
TAFSAN
TAF AMD
KSAN 310546Z 3106/0112 VRB03KT P6SM VCSH FEW015 SCT080 BKN100
      TEMPO 3106/3110 BKN010 BKN015
     FM311000 VRB03KT P6SM FEW025 SCT080 BKN100
      TEMPO 3110/3114 BKN025
     FM311900 30008KT P6SM BKN150
     FM010100 VRB04KT P6SM SCT025 SCT250=



000
FTUS46 KSGX 310500 AAA
TAFSNA
TAF AMD
KSNA 310531Z 3106/0106 VRB04KT P6SM SCT015 BKN120 BKN250
      TEMPO 3106/3109 BKN015
     FM312000 22007KT P6SM SCT100
     FM010200 VRB04KT P6SM SCT250=



000
FTUS46 KSGX 310500
TAFSAN
TAF
KSAN 310520Z 3106/0112 VRB03KT P6SM VCSH FEW030 SCT080 BKN100
     FM311000 VRB03KT P6SM FEW025 SCT080 BKN100
      TEMPO 3110/3114 BKN025
     FM311900 30008KT P6SM BKN150
     FM010100 VRB04KT P6SM SCT025 SCT250=



000
FTUS46 KSGX 310500
TAFONT
TAF
KONT 310520Z 3106/0112 VRB04KT P6SM BKN150
     FM311500 04008KT P6SM SCT150
     FM311900 03012G20KT P6SM SCT250
     FM010200 VRB04KT P6SM SCT250=



000
FTUS46 KSGX 310500
TAFSNA
TAF
KSNA 310520Z 3106/0106 VRB04KT P6SM SCT015 BKN120 BKN250
      TEMPO 3109/3112 BKN015
     FM312000 22007KT P6SM SCT100
     FM010200 VRB04KT P6SM SCT250=



000
FTUS46 KSGX 310500
TAFPSP
TAF
KPSP 310520Z 3106/0106 VRB05KT P6SM VCSH SCT080 BKN100
     FM312000 34008KT P6SM SCT150
     FM010300 VRB04KT P6SM SCT250=



000
FTUS46 KSGX 310500
TAFCRQ
TAF
KCRQ 310520Z 3106/0106 VRB03KT P6SM VCSH BKN080
     FM311000 VRB03KT P6SM FEW015 SCT080 BKN100
      TEMPO 3110/3114 BKN015
     FM311900 27007KT P6SM BKN150
     FM010100 VRB04KT P6SM SCT025 SCT250=



000
FTUS46 KSGX 310500
TAFTRM
TAF
KTRM 310520Z 3106/0106 VRB05KT P6SM VCSH BKN080
     FM311800 32010KT P6SM SCT150
     FM010300 VRB05KT P6SM SCT250=



000
FTUS46 KSGX 310300 AAA
TAFSAN
TAF AMD
KSAN 310305Z 3103/0106 VRB05KT P6SM VCSH BKN060 OVC080
     FM311000 VRB03KT P6SM SCT060 OVC080
     FM311900 30008KT P6SM BKN100
     FM010100 VRB04KT P6SM SCT250=



000
FTUS46 KSGX 302300
TAFSAN
TAF
KSAN 302340Z 3100/0106 VRB05KT P6SM VCSH FEW030 OVC080
     FM311000 VRB03KT P6SM VCSH BKN025 OVC080
     FM311900 30008KT P6SM SCT025 BKN080
     FM010100 VRB04KT P6SM FEW025 SCT150=



000
FTUS46 KSGX 302300
TAFPSP
TAF
KPSP 302340Z 3100/3124 VRB05KT P6SM -SHRA OVC080
     FM311200 VRB05KT P6SM VCSH BKN050 OVC070
     FM312000 34009KT P6SM VCSH BKN070 BKN100=



000
FTUS46 KSGX 302300
TAFCRQ
TAF
KCRQ 302340Z 3100/3124 VRB05KT P6SM VCSH SCT060 OVC090
     FM311000 VRB03KT P6SM VCSH BKN025 OVC080
     FM311900 27007KT P6SM SCT025 BKN080=



000
FTUS46 KSGX 302300
TAFONT
TAF
KONT 302340Z 3100/0106 VRB05KT P6SM VCSH SCT050 BKN070
     FM311500 VRB03KT P6SM SCT050 BKN100
     FM311900 03010KT P6SM SCT150
     FM010200 VRB04KT P6SM SCT150=



000
FTUS46 KSGX 302300
TAFSNA
TAF
KSNA 302340Z 3100/3124 22007KT P6SM VCSH SCT080 BKN100
     FM310100 VRB04KT P6SM VCSH SCT025 BKN100
     FM312000 22007KT P6SM SCT100=



000
FTUS46 KSGX 302300
TAFTRM
TAF
KTRM 302340Z 3100/3124 32010KT P6SM -SHRA BKN080 OVC100
     FM310800 VRB05KT P6SM VCSH BKN050
     FM311700 32006KT P6SM BKN070 BKN100=



000
FTUS46 KSGX 302100 AAA
TAFSAN
TAF AMD
KSAN 302102Z 3021/3124 32005KT P6SM VCSH FEW030 OVC080
     FM310100 VRB04KT P6SM VCSH SCT025 OVC050
      TEMPO 3106/3110 -SHRA BKN020
     FM311000 VRB03KT P6SM VCSH BKN025 OVC030
     FM311900 25008KT P6SM SCT025 BKN040=



000
FTUS46 KSGX 301700
TAFSNA
TAF
KSNA 301720Z 3018/3118 VRB04KT P6SM VCSH SCT060 OVC080
     FM301900 22006KT P6SM VCSH OVC060
     FM310100 VRB04KT P6SM VCSH SCT020 OVC030
      TEMPO 3108/3112 5SM -SHRA BKN020=



000
FTUS46 KSGX 301700
TAFTRM
TAF
KTRM 301720Z 3018/3118 VRB05KT P6SM VCSH OVC080
     FM301900 32005KT P6SM -SHRA BKN060 OVC080
     FM310800 VRB05KT P6SM VCSH BKN050=



000
FTUS46 KSGX 301700
TAFCRQ
TAF
KCRQ 301720Z 3018/3118 VRB04KT P6SM VCSH SCT060 OVC080
     FM301900 23006KT P6SM VCSH SCT025 OVC060
     FM310100 VRB04KT P6SM VCSH SCT025 OVC050
      TEMPO 3106/3110 5SM -SHRA BKN015=



000
FTUS46 KSGX 301700
TAFONT
TAF
KONT 301720Z 3018/3124 VRB04KT P6SM VCSH SCT060 OVC080
     FM301900 25006KT P6SM VCSH OVC060
     FM310200 VRB04KT P6SM VCSH SCT020 OVC050
      TEMPO 3110/3114 5SM -SHRA BKN020
     FM311600 VRB03KT P6SM BKN050
     FM311800 02010KT P6SM SCT050=



000
FTUS46 KSGX 301700
TAFSAN
TAF
KSAN 301720Z 3018/3124 VRB04KT P6SM VCSH BKN060 OVC080
     FM301900 23008KT P6SM VCSH SCT025 OVC060
     FM310100 VRB04KT P6SM VCSH SCT025 OVC050
      TEMPO 3106/3110 -SHRA BKN020
     FM311000 VRB03KT P6SM VCSH BKN025 OVC030
     FM311900 25008KT P6SM SCT025 BKN040=



000
FTUS46 KSGX 301700
TAFPSP
TAF
KPSP 301720Z 3018/3118 VRB05KT P6SM VCSH OVC070
     FM301900 32005KT P6SM -SHRA BKN040 OVC070
     FM310700 VRB05KT P6SM VCSH BKN050=



000
FTUS46 KSGX 301400 AAA
TAFSAN
TAF AMD
KSAN 301458Z 3015/3118 VRB04KT P6SM VCSH BKN060 OVC080
     FM301900 23007KT P6SM VCSH SCT025 OVC060
     FM310100 VRB04KT P6SM VCSH SCT020 OVC050
      TEMPO 3106/3110 -SHRA BKN020
     FM311000 VRB03KT P6SM VCSH BKN020 OVC050
     FM311700 VRB04KT P6SM VCSH SCT025 BKN040=



000
FTUS46 KSGX 301100
TAFPSP
TAF
KPSP 301120Z 3012/3112 VRB05KT P6SM VCSH OVC070
     FM301900 32005KT P6SM -SHRA BKN050 OVC070=



000
FTUS46 KSGX 301100
TAFCRQ
TAF
KCRQ 301120Z 3012/3112 VRB04KT P6SM VCSH SCT060 OVC080
     FM301900 23006KT P6SM VCSH SCT025 OVC060
     FM310100 VRB04KT P6SM VCSH SCT020 OVC050
      TEMPO 3106/3110 5SM -SHRA BKN015
     FM311000 VRB03KT P6SM VCSH BKN020 OVC050=



000
FTUS46 KSGX 301100
TAFONT
TAF
KONT 301120Z 3012/3118 VRB04KT P6SM VCSH SCT060 OVC080
     FM301900 25006KT P6SM VCSH OVC060
     FM310200 VRB04KT P6SM VCSH SCT020 OVC050
      TEMPO 3110/3114 5SM -SHRA BKN015
     FM311600 VRB03KT P6SM BKN050=



000
FTUS46 KSGX 301100
TAFSNA
TAF
KSNA 301120Z 3012/3112 VRB04KT P6SM VCSH SCT060 OVC080
     FM301900 22006KT P6SM VCSH OVC060
     FM310100 VRB04KT P6SM VCSH SCT020 OVC050
      TEMPO 3108/3112 5SM -SHRA BKN020=



000
FTUS46 KSGX 301100
TAFTRM
TAF
KTRM 301120Z 3012/3112 VRB05KT P6SM VCSH OVC080
     FM301900 32005KT P6SM -SHRA BKN060 OVC080=



000
FTUS46 KSGX 301100
TAFSAN
TAF
KSAN 301120Z 3012/3118 VRB04KT P6SM VCSH SCT060 OVC080
     FM301900 23007KT P6SM VCSH SCT025 OVC060
     FM310100 VRB04KT P6SM VCSH SCT020 OVC050
      TEMPO 3106/3110 -SHRA BKN020
     FM311000 VRB03KT P6SM VCSH BKN020 OVC050
     FM311700 VRB04KT P6SM VCSH SCT025 BKN040=



000
FTUS46 KSGX 300800 AAA
TAFSAN
TAF AMD
KSAN 300859Z 3009/3112 VRB04KT P6SM VCSH SCT060 BKN080
     FM301900 20007KT P6SM VCSH BKN050 OVC080
     FM310100 VRB04KT P6SM VCSH SCT020 OVC050
      TEMPO 3105/3109 BKN020=



000
FTUS46 KSGX 300700 AAA
TAFSNA
TAF AMD
KSNA 300703Z 3007/3106 VRB03KT P6SM VCSH SCT060 OVC080
     FM301200 14006KT P6SM VCSH OVC020
     FM310500 VRB05KT 5SM -SHRA BKN020=



000
FTUS46 KSGX 300500
TAFPSP
TAF
KPSP 300520Z 3006/3106 VRB05KT P6SM SCT060 OVC100
     FM301200 VRB04KT P6SM BKN070 OVC100
     FM301800 VRB06KT 6SM -SHRA BKN040 OVC080=



000
FTUS46 KSGX 300500
TAFTRM
TAF
KTRM 300520Z 3006/3106 VRB05KT P6SM OVC150
     FM301200 VRB05KT P6SM BKN070 OVC100
     FM301800 VRB06KT 6SM -SHRA BKN040 OVC080=



000
FTUS46 KSGX 300500
TAFONT
TAF
KONT 300520Z 3006/3112 VRB04KT P6SM SCT060 OVC100
     FM301800 25005KT P6SM VCSH SCT025 BKN060
     FM310100 24007KT 6SM -SHRA BR BKN025 BKN060=



000
FTUS46 KSGX 300500
TAFCRQ
TAF
KCRQ 300520Z 3006/3106 VRB03KT P6SM SCT020 OVC050
     FM301200 14005KT P6SM VCSH OVC025
     FM301900 23007KT 6SM BR VCSH BKN020
     FM310200 VRB05KT 4SM -SHRA BKN015=



000
FTUS46 KSGX 300500
TAFSNA
TAF
KSNA 300520Z 3006/3106 14007KT P6SM BKN020 OVC060
     FM301200 14006KT P6SM VCSH OVC020
     FM310500 VRB05KT 5SM -SHRA BKN020=



000
FTUS46 KSGX 300500
TAFSAN
TAF
KSAN 300520Z 3006/3112 VRB04KT P6SM VCSH OVC060
     FM300900 16004KT P6SM VCSH OVC025
     FM301800 20006KT 6SM -SHRA BR BKN025
     FM310200 25005KT 5SM -SHRA BR BKN020=



000
FTUS46 KSGX 300200 AAA
TAFSAN
TAF AMD
KSAN 300256Z 3003/3106 18006KT P6SM FEW025 BKN070 OVC100
     FM300600 VRB04KT P6SM BKN025 OVC060
     FM301200 16004KT P6SM VCSH OVC020
     FM301800 20006KT 5SM -SHRA BR BKN018 OVC025
     FM302000 22010KT 5SM -SHRA BR BKN015=



    US Dept of Commerce
    National Oceanic and Atmospheric Administration
    National Weather Service
    1325 East West Highway
    Silver Spring, MD 20910
    Page Author: NWS Internet Services Team
Disclaimer
Information Quality
Credits
Glossary
Privacy Policy
Freedom of Information Act (FOIA)
About Us
Career Opportunities